createdAt,value
2022-12-06T00:01:18.298Z,47.40
2022-12-06T00:03:47.185Z,47.02
2022-12-06T00:06:17.418Z,47.47
2022-12-06T00:08:45.908Z,47.68
2022-12-06T00:11:19.062Z,47.91
2022-12-06T00:13:47.183Z,47.83
2022-12-06T00:16:16.454Z,48.23
2022-12-06T00:18:45.181Z,48.03
2022-12-06T00:21:13.329Z,48.03
2022-12-06T00:23:43.044Z,47.21
2022-12-06T00:26:10.540Z,47.75
2022-12-06T00:28:37.960Z,48.41
2022-12-06T00:31:07.613Z,47.79
2022-12-06T00:33:36.280Z,47.80
2022-12-06T00:36:06.260Z,48.29
2022-12-06T00:38:34.363Z,47.53
2022-12-06T00:41:06.903Z,47.82
2022-12-06T00:43:35.008Z,47.56
2022-12-06T00:46:03.285Z,48.35
2022-12-06T00:48:30.403Z,48.29
2022-12-06T00:50:58.068Z,47.89
2022-12-06T00:53:25.666Z,47.88
2022-12-06T00:55:52.892Z,48.57
2022-12-06T00:58:19.876Z,48.19
2022-12-06T01:00:46.791Z,48.58
2022-12-06T01:03:14.656Z,48.54
2022-12-06T01:05:44.520Z,48.95
2022-12-06T01:08:12.214Z,48.67
2022-12-06T01:10:39.933Z,49.04
2022-12-06T01:13:08.459Z,48.56
2022-12-06T01:15:38.715Z,48.45
2022-12-06T01:18:05.767Z,48.75
2022-12-06T01:20:32.628Z,49.12
2022-12-06T01:22:59.603Z,48.87
2022-12-06T01:25:27.968Z,48.84
2022-12-06T01:27:56.610Z,49.06
2022-12-06T01:30:23.519Z,49.23
2022-12-06T01:32:50.536Z,49.42
2022-12-06T01:35:17.691Z,49.75
2022-12-06T01:37:44.605Z,49.44
2022-12-06T01:40:12.815Z,49.50
2022-12-06T01:42:39.905Z,49.46
2022-12-06T01:45:07.414Z,49.36
2022-12-06T01:47:42.164Z,49.69
2022-12-06T01:50:41.193Z,50.16
2022-12-06T01:53:10.945Z,50.08
2022-12-06T01:55:40.257Z,49.66
2022-12-06T01:58:16.332Z,49.88
2022-12-06T02:00:43.716Z,49.37
2022-12-06T02:03:20.041Z,49.47
2022-12-06T02:05:47.176Z,49.47
2022-12-06T02:08:16.415Z,49.56
2022-12-06T02:10:43.432Z,49.86
2022-12-06T02:13:10.525Z,49.57
2022-12-06T02:15:46.561Z,49.45
2022-12-06T02:18:47.572Z,49.26
2022-12-06T02:21:32.789Z,49.66
2022-12-06T02:24:39.163Z,49.85
2022-12-06T02:27:28.185Z,49.86
2022-12-06T02:30:53.379Z,49.99
2022-12-06T02:33:51.980Z,50.01
2022-12-06T02:36:38.863Z,50.05
2022-12-06T02:39:12.936Z,50.14
2022-12-06T02:41:47.701Z,50.55
2022-12-06T02:44:24.048Z,50.68
2022-12-06T02:46:52.852Z,50.56
2022-12-06T02:49:20.935Z,50.65
2022-12-06T02:51:48.583Z,50.39
2022-12-06T02:54:17.455Z,50.24
2022-12-06T02:56:44.394Z,50.58
2022-12-06T02:59:11.295Z,50.56
2022-12-06T03:01:45.505Z,50.93
2022-12-06T03:04:49.555Z,50.67
2022-12-06T03:07:19.336Z,50.89
2022-12-06T03:09:56.353Z,51.42
2022-12-06T03:12:39.589Z,51.11
2022-12-06T03:15:09.271Z,51.15
2022-12-06T03:17:47.054Z,51.54
2022-12-06T03:20:36.312Z,51.27
2022-12-06T03:23:07.254Z,51.15
2022-12-06T03:25:36.918Z,51.18
2022-12-06T03:28:10.559Z,51.52
2022-12-06T03:30:39.073Z,51.55
2022-12-06T03:33:06.033Z,51.90
2022-12-06T03:35:34.940Z,51.30
2022-12-06T03:38:10.182Z,51.77
2022-12-06T03:40:40.684Z,52.00
2022-12-06T03:43:08.094Z,51.76
2022-12-06T03:45:59.625Z,52.08
2022-12-06T03:48:32.437Z,52.46
2022-12-06T03:51:05.298Z,52.28
2022-12-06T03:53:32.915Z,51.77
2022-12-06T03:56:00.244Z,51.54
2022-12-06T03:58:27.209Z,51.58
2022-12-06T04:00:54.112Z,52.03
2022-12-06T04:03:21.209Z,51.92
2022-12-06T04:05:48.157Z,51.72
2022-12-06T04:08:15.171Z,51.67
2022-12-06T04:10:42.095Z,52.20
2022-12-06T04:13:09.109Z,52.20
2022-12-06T04:15:38.367Z,52.08
2022-12-06T04:18:07.329Z,51.59
2022-12-06T04:20:34.313Z,51.85
2022-12-06T04:23:01.378Z,51.79
2022-12-06T04:25:28.263Z,51.47
2022-12-06T04:27:55.159Z,50.86
2022-12-06T04:30:21.956Z,51.39
2022-12-06T04:32:48.926Z,51.05
2022-12-06T04:35:15.906Z,51.00
2022-12-06T04:37:42.832Z,50.98
2022-12-06T04:40:10.204Z,50.98
2022-12-06T04:42:37.209Z,50.67
2022-12-06T04:45:05.554Z,50.76
2022-12-06T04:47:32.790Z,51.41
2022-12-06T04:49:59.972Z,50.64
2022-12-06T04:52:31.265Z,50.98
2022-12-06T04:55:01.157Z,50.98
2022-12-06T04:57:27.972Z,51.11
2022-12-06T04:59:54.966Z,50.58
2022-12-06T05:02:21.913Z,50.00
2022-12-06T05:04:48.899Z,49.96
2022-12-06T05:07:15.843Z,49.97
2022-12-06T05:09:43.530Z,49.54
2022-12-06T05:12:10.551Z,48.60
2022-12-06T05:14:37.518Z,48.69
2022-12-06T05:17:04.456Z,48.75
2022-12-06T05:19:31.532Z,48.80
2022-12-06T05:21:58.420Z,48.45
2022-12-06T05:24:25.484Z,48.53
2022-12-06T05:26:52.307Z,49.06
2022-12-06T05:29:19.258Z,48.97
2022-12-06T05:31:46.205Z,48.69
2022-12-06T05:34:13.172Z,48.13
2022-12-06T05:36:40.195Z,48.29
2022-12-06T05:39:07.187Z,48.00
2022-12-06T05:41:34.099Z,48.30
2022-12-06T05:44:00.989Z,47.62
2022-12-06T05:46:28.077Z,46.99
2022-12-06T05:48:55.063Z,46.11
2022-12-06T05:51:22.161Z,45.43
2022-12-06T05:53:49.110Z,45.01
2022-12-06T05:56:15.961Z,45.55
2022-12-06T05:58:42.888Z,45.88
2022-12-06T06:01:09.966Z,46.06
2022-12-06T06:03:42.258Z,45.99
2022-12-06T06:06:12.647Z,45.90
2022-12-06T06:08:39.514Z,46.00
2022-12-06T06:11:06.458Z,46.28
2022-12-06T06:13:33.390Z,46.08
2022-12-06T06:16:00.443Z,46.37
2022-12-06T06:18:27.278Z,46.69
2022-12-06T06:20:57.831Z,47.21
2022-12-06T06:23:25.816Z,47.02
2022-12-06T06:25:52.902Z,47.17
2022-12-06T06:28:20.766Z,47.74
2022-12-06T06:30:47.929Z,47.36
2022-12-06T06:33:15.758Z,47.79
2022-12-06T06:35:43.190Z,47.83
2022-12-06T06:38:10.084Z,47.96
2022-12-06T06:40:37.063Z,47.24
2022-12-06T06:43:03.945Z,47.29
2022-12-06T06:45:31.118Z,47.23
2022-12-06T06:47:58.079Z,47.60
2022-12-06T06:50:25.110Z,47.37
2022-12-06T06:52:51.985Z,47.24
2022-12-06T06:55:18.996Z,47.55
2022-12-06T06:57:45.961Z,47.09
2022-12-06T07:00:13.732Z,46.93
2022-12-06T07:02:40.677Z,47.45
2022-12-06T07:05:07.871Z,47.27
2022-12-06T07:07:34.899Z,47.61
2022-12-06T07:10:02.096Z,47.55
2022-12-06T07:12:29.267Z,47.68
2022-12-06T07:14:56.201Z,47.46
2022-12-06T07:17:23.031Z,47.58
2022-12-06T07:19:50.064Z,46.82
2022-12-06T07:22:17.067Z,47.18
2022-12-06T07:24:50.722Z,47.71
2022-12-06T07:27:19.418Z,47.36
2022-12-06T07:29:46.358Z,47.56
2022-12-06T07:32:13.232Z,46.41
2022-12-06T07:34:40.069Z,47.08
2022-12-06T07:37:07.086Z,46.85
2022-12-06T07:39:33.947Z,46.65
2022-12-06T07:42:00.968Z,46.43
2022-12-06T07:44:36.514Z,46.99
2022-12-06T07:47:04.003Z,46.94
2022-12-06T07:49:31.048Z,46.09
2022-12-06T07:51:58.394Z,46.08
2022-12-06T07:54:25.683Z,45.69
2022-12-06T07:56:52.737Z,45.67
2022-12-06T07:59:19.838Z,45.45
2022-12-06T08:01:46.986Z,45.69
2022-12-06T08:04:14.375Z,44.86
2022-12-06T08:06:41.399Z,44.70
2022-12-06T08:09:08.840Z,44.36
2022-12-06T08:11:36.005Z,44.20
2022-12-06T08:14:04.685Z,44.48
2022-12-06T08:16:31.716Z,43.72
2022-12-06T08:18:58.962Z,44.04
2022-12-06T08:21:25.892Z,43.40
2022-12-06T08:23:54.474Z,42.89
2022-12-06T08:26:21.921Z,42.59
2022-12-06T08:28:48.830Z,42.21
2022-12-06T08:31:20.481Z,42.34
2022-12-06T08:33:48.249Z,41.83
2022-12-06T08:36:19.618Z,42.52
2022-12-06T08:38:47.628Z,42.94
2022-12-06T08:41:14.870Z,42.86
2022-12-06T08:43:41.996Z,42.00
2022-12-06T08:46:08.953Z,42.00
2022-12-06T08:48:41.266Z,40.93
2022-12-06T08:51:09.881Z,40.87
2022-12-06T08:53:36.860Z,40.57
2022-12-06T08:56:04.010Z,40.17
2022-12-06T08:58:31.235Z,41.01
2022-12-06T09:00:58.319Z,39.46
2022-12-06T09:03:26.627Z,39.85
2022-12-06T09:05:53.606Z,39.44
2022-12-06T09:08:20.513Z,39.01
2022-12-06T09:10:47.518Z,39.30
2022-12-06T09:13:14.390Z,38.75
2022-12-06T09:15:41.406Z,39.03
2022-12-06T09:18:08.244Z,38.22
2022-12-06T09:20:38.954Z,37.94
2022-12-06T09:23:05.936Z,37.92
2022-12-06T09:25:33.061Z,38.42
2022-12-06T09:28:00.618Z,37.99
2022-12-06T09:30:27.617Z,38.16
2022-12-06T09:32:54.536Z,37.18
2022-12-06T09:35:24.992Z,36.50
2022-12-06T09:37:52.396Z,37.40
2022-12-06T09:40:36.230Z,36.72
2022-12-06T09:43:32.769Z,36.64
2022-12-06T09:46:21.461Z,36.30
2022-12-06T09:49:00.641Z,36.35
2022-12-06T09:51:38.630Z,36.64
2022-12-06T09:54:17.487Z,35.92
2022-12-06T09:56:58.008Z,34.90
2022-12-06T09:59:39.275Z,35.73
2022-12-06T10:02:06.163Z,36.07
2022-12-06T10:05:02.605Z,35.28
2022-12-06T10:07:53.597Z,35.85
2022-12-06T10:10:33.458Z,35.80
2022-12-06T10:13:33.630Z,35.78
2022-12-06T10:16:32.557Z,35.80
2022-12-06T10:19:18.929Z,36.54
2022-12-06T10:21:52.187Z,36.57
2022-12-06T10:24:35.871Z,36.97
2022-12-06T10:27:11.703Z,36.00
2022-12-06T10:30:02.431Z,37.26
2022-12-06T10:32:55.741Z,36.93
2022-12-06T10:35:40.790Z,37.27
2022-12-06T10:38:20.129Z,37.11
2022-12-06T10:40:58.929Z,36.84
2022-12-06T10:43:36.263Z,37.19
2022-12-06T10:46:11.761Z,36.97
2022-12-06T10:48:51.206Z,36.65
2022-12-06T10:51:43.358Z,36.28
2022-12-06T10:54:24.020Z,36.83
2022-12-06T10:56:53.779Z,36.54
2022-12-06T10:59:36.571Z,37.38
2022-12-06T11:02:25.918Z,37.41
2022-12-06T11:04:59.399Z,36.79
2022-12-06T11:07:36.414Z,37.41
2022-12-06T11:10:14.533Z,37.44
2022-12-06T11:12:42.709Z,37.88
2022-12-06T11:15:12.434Z,37.80
2022-12-06T11:17:44.929Z,38.25
2022-12-06T11:20:38.289Z,38.08
2022-12-06T11:23:28.441Z,37.76
2022-12-06T11:26:29.486Z,37.49
2022-12-06T11:29:01.123Z,38.11
2022-12-06T11:31:38.332Z,37.20
2022-12-06T11:34:13.933Z,37.26
2022-12-06T11:36:41.514Z,37.03
2022-12-06T11:39:08.537Z,37.08
2022-12-06T11:41:37.553Z,36.76
2022-12-06T11:44:04.700Z,36.39
2022-12-06T11:46:31.969Z,37.40
2022-12-06T11:49:14.771Z,37.66
2022-12-06T11:51:41.752Z,37.96
2022-12-06T11:54:22.808Z,37.92
2022-12-06T11:56:50.570Z,38.23
2022-12-06T11:59:27.457Z,38.86
2022-12-06T12:01:57.238Z,38.93
2022-12-06T12:04:29.970Z,38.63
2022-12-06T12:07:05.776Z,39.11
2022-12-06T12:10:04.997Z,39.33
2022-12-06T12:12:48.331Z,38.93
2022-12-06T12:15:19.135Z,39.07
2022-12-06T12:17:48.870Z,39.44
2022-12-06T12:20:24.238Z,39.89
2022-12-06T12:23:23.629Z,40.13
2022-12-06T12:26:15.144Z,39.78
2022-12-06T12:28:44.272Z,39.71
2022-12-06T12:31:23.695Z,40.12
2022-12-06T12:34:33.351Z,40.53
2022-12-06T12:37:03.812Z,39.99
2022-12-06T12:39:34.889Z,40.44
2022-12-06T12:42:02.632Z,40.45
2022-12-06T12:44:39.082Z,40.59
2022-12-06T12:47:27.126Z,40.40
2022-12-06T12:50:04.170Z,40.55
2022-12-06T12:52:41.691Z,40.80
2022-12-06T12:55:27.171Z,40.40
2022-12-06T12:57:59.480Z,40.59
2022-12-06T13:00:32.151Z,40.82
2022-12-06T13:03:07.834Z,41.32
2022-12-06T13:05:46.831Z,41.47
2022-12-06T13:08:24.674Z,41.38
2022-12-06T13:10:59.095Z,41.73
2022-12-06T13:13:35.906Z,41.95
2022-12-06T13:16:10.843Z,41.27
2022-12-06T13:18:43.079Z,41.41
2022-12-06T13:21:36.180Z,41.72
2022-12-06T13:24:10.240Z,42.42
2022-12-06T13:26:50.984Z,42.29
2022-12-06T13:29:28.693Z,41.96
2022-12-06T13:31:58.237Z,42.07
2022-12-06T13:34:39.168Z,42.71
2022-12-06T13:37:29.175Z,42.69
2022-12-06T13:39:56.786Z,42.60
2022-12-06T13:42:43.435Z,42.67
2022-12-06T13:46:01.868Z,42.65
2022-12-06T13:48:37.232Z,42.84
2022-12-06T13:51:28.740Z,42.76
2022-12-06T13:54:05.074Z,43.34
2022-12-06T13:56:35.153Z,43.11
2022-12-06T13:59:03.648Z,43.53
2022-12-06T14:01:39.551Z,43.49
2022-12-06T14:09:50.530Z,43.46
2022-12-06T14:12:27.439Z,43.66
2022-12-06T14:15:00.376Z,43.72
2022-12-06T14:20:30.599Z,43.65
2022-12-06T14:22:57.525Z,43.87
2022-12-06T14:25:27.438Z,44.33
2022-12-06T14:28:06.748Z,43.61
2022-12-06T14:30:33.819Z,43.73
2022-12-06T14:33:00.774Z,43.91
2022-12-06T14:35:33.868Z,43.57
2022-12-06T14:38:03.850Z,43.54
2022-12-06T14:40:47.173Z,44.17
2022-12-06T14:43:18.692Z,43.93
2022-12-06T14:45:46.767Z,44.23
2022-12-06T14:48:14.282Z,44.37
2022-12-06T14:51:12.806Z,44.18
2022-12-06T14:53:40.039Z,44.01
2022-12-06T14:56:23.629Z,43.77
2022-12-06T14:58:51.591Z,44.23
2022-12-06T15:01:25.720Z,44.65
2022-12-06T15:04:08.590Z,44.78
2022-12-06T15:06:37.409Z,44.90
2022-12-06T15:09:15.769Z,44.73
2022-12-06T15:11:44.360Z,44.24
2022-12-06T15:14:17.889Z,44.56
2022-12-06T15:16:56.437Z,44.48
2022-12-06T15:19:23.473Z,44.43
2022-12-06T15:21:54.428Z,44.51
2022-12-06T15:24:23.886Z,43.81
2022-12-06T15:26:51.733Z,44.44
2022-12-06T15:29:19.916Z,44.23
2022-12-06T15:31:50.148Z,44.54
2022-12-06T15:34:23.385Z,44.43
2022-12-06T15:37:03.596Z,44.38
2022-12-06T15:39:36.359Z,44.76
2022-12-06T15:42:04.061Z,44.73
2022-12-06T15:44:31.007Z,44.59
2022-12-06T15:46:57.908Z,44.76
2022-12-06T15:49:25.854Z,45.70
2022-12-06T15:51:53.224Z,45.04
2022-12-06T15:54:23.988Z,45.40
2022-12-06T15:56:51.857Z,45.29
2022-12-06T15:59:19.688Z,45.37
2022-12-06T16:01:48.852Z,45.54
2022-12-06T16:04:18.695Z,45.91
2022-12-06T16:06:46.466Z,46.34
2022-12-06T16:09:14.932Z,45.99
2022-12-06T16:11:42.288Z,45.72
2022-12-06T16:14:10.073Z,46.14
2022-12-06T16:16:43.058Z,46.33
2022-12-06T16:19:10.751Z,46.15
2022-12-06T16:21:52.389Z,46.21
2022-12-06T16:24:19.788Z,46.09
2022-12-06T16:26:46.998Z,46.31
2022-12-06T16:29:18.889Z,46.98
2022-12-06T16:31:46.039Z,46.94
2022-12-06T16:34:13.696Z,46.96
2022-12-06T16:37:05.149Z,46.32
2022-12-06T16:39:34.275Z,46.41
2022-12-06T16:42:03.443Z,46.88
2022-12-06T16:44:31.588Z,46.62
2022-12-06T16:46:58.695Z,46.88
2022-12-06T16:52:15.878Z,47.60
2022-12-06T16:54:43.120Z,47.48
2022-12-06T16:57:14.444Z,46.86
2022-12-06T16:59:43.165Z,46.60
2022-12-06T17:02:32.303Z,46.74
2022-12-06T17:05:02.836Z,46.88
2022-12-06T17:07:30.229Z,47.54
2022-12-06T17:09:57.415Z,47.81
2022-12-06T17:12:24.785Z,47.74
2022-12-06T17:14:51.732Z,47.77
2022-12-06T17:17:21.727Z,47.67
2022-12-06T17:19:49.343Z,47.55
2022-12-06T17:22:17.092Z,47.72
2022-12-06T17:24:44.632Z,48.21
2022-12-06T17:27:12.504Z,48.40
2022-12-06T17:29:39.389Z,48.44
2022-12-06T17:32:07.269Z,48.16
2022-12-06T17:34:34.271Z,48.79
2022-12-06T17:37:02.064Z,49.07
2022-12-06T17:39:29.070Z,48.74
2022-12-06T17:41:56.245Z,49.13
2022-12-06T17:44:23.166Z,49.12
2022-12-06T17:46:50.123Z,49.43
2022-12-06T17:49:20.147Z,49.12
2022-12-06T17:51:47.406Z,49.30
2022-12-06T17:54:15.235Z,49.74
2022-12-06T17:56:53.150Z,49.90
2022-12-06T17:59:23.028Z,50.31
2022-12-06T18:02:13.591Z,50.24
2022-12-06T18:04:39.852Z,50.36
2022-12-06T18:07:06.759Z,49.60
2022-12-06T18:09:33.698Z,49.77
2022-12-06T18:12:00.810Z,50.31
2022-12-06T18:14:28.420Z,50.05
2022-12-06T18:16:55.793Z,50.73
2022-12-06T18:19:23.256Z,51.67
2022-12-06T18:21:51.103Z,50.65
2022-12-06T18:24:23.111Z,51.28
2022-12-06T18:26:52.607Z,51.33
2022-12-06T18:29:23.355Z,52.09
2022-12-06T18:31:51.925Z,51.94
2022-12-06T18:34:19.114Z,52.43
2022-12-06T18:36:46.886Z,53.03
2022-12-06T18:39:16.922Z,53.24
2022-12-06T18:41:44.972Z,54.23
2022-12-06T18:44:12.938Z,54.25
2022-12-06T18:46:40.721Z,54.20
2022-12-06T18:49:09.561Z,54.55
2022-12-06T18:51:36.876Z,54.75
2022-12-06T18:54:05.905Z,54.89
2022-12-06T18:56:34.731Z,55.38
2022-12-06T18:59:05.087Z,54.72
2022-12-06T19:01:35.873Z,54.95
2022-12-06T19:04:05.229Z,54.75
2022-12-06T19:06:35.213Z,55.22
2022-12-06T19:09:14.090Z,55.13
2022-12-06T19:11:43.729Z,54.54
2022-12-06T19:14:12.581Z,54.65
2022-12-06T19:16:41.026Z,55.57
2022-12-06T19:19:16.267Z,55.35
2022-12-06T19:21:48.659Z,54.85
2022-12-06T19:24:20.850Z,55.20
2022-12-06T19:26:50.315Z,55.04
2022-12-06T19:29:17.881Z,54.45
2022-12-06T19:31:45.677Z,54.21
2022-12-06T19:34:22.330Z,55.57
2022-12-06T19:36:51.091Z,55.83
2022-12-06T19:39:19.003Z,55.20
2022-12-06T19:41:46.469Z,54.83
2022-12-06T19:44:13.383Z,55.42
2022-12-06T19:46:42.994Z,55.95
2022-12-06T19:49:11.094Z,56.31
2022-12-06T19:51:40.660Z,56.81
2022-12-06T19:54:08.705Z,56.86
2022-12-06T19:56:36.451Z,57.01
2022-12-06T19:59:03.643Z,57.51
2022-12-06T20:01:30.756Z,58.05
2022-12-06T20:03:57.762Z,57.63
2022-12-06T20:06:27.167Z,58.37
2022-12-06T20:08:57.990Z,58.10
2022-12-06T20:11:27.993Z,58.20
2022-12-06T20:13:58.659Z,57.93
2022-12-06T20:16:25.569Z,58.09
2022-12-06T20:18:52.481Z,58.59
2022-12-06T20:21:19.520Z,58.17
2022-12-06T20:23:46.515Z,57.87
2022-12-06T20:26:13.421Z,57.88
2022-12-06T20:28:40.263Z,58.00
2022-12-06T20:31:16.902Z,57.66
2022-12-06T20:33:44.093Z,57.65
2022-12-06T20:36:19.519Z,57.86
2022-12-06T20:38:47.169Z,57.09
2022-12-06T20:41:20.101Z,58.13
2022-12-06T20:43:47.645Z,57.36
2022-12-06T20:46:17.021Z,57.07
2022-12-06T20:48:44.793Z,57.86
2022-12-06T20:51:11.576Z,57.61
2022-12-06T20:53:38.932Z,57.98
2022-12-06T20:56:08.085Z,57.61
2022-12-06T20:58:35.722Z,58.14
2022-12-06T21:01:03.316Z,58.21
2022-12-06T21:03:31.010Z,58.21
2022-12-06T21:06:06.964Z,57.88
2022-12-06T21:08:34.247Z,58.76
2022-12-06T21:13:48.489Z,59.00
2022-12-06T21:16:19.059Z,59.03
2022-12-06T21:18:46.426Z,58.58
2022-12-06T21:21:29.544Z,58.63
2022-12-06T21:23:59.716Z,58.58
2022-12-06T21:26:26.859Z,58.87
2022-12-06T21:28:53.888Z,58.41
2022-12-06T21:31:21.406Z,59.23
2022-12-06T21:33:48.308Z,59.67
2022-12-06T21:36:15.213Z,60.08
2022-12-06T21:38:42.051Z,59.45
2022-12-06T21:41:12.726Z,59.49
2022-12-06T21:43:40.109Z,59.31
2022-12-06T21:46:11.060Z,59.68
2022-12-06T21:48:38.791Z,60.44
2022-12-06T21:51:08.884Z,60.06
2022-12-06T21:53:37.107Z,60.46
2022-12-06T21:56:13.759Z,59.99
2022-12-06T21:58:40.736Z,60.30
2022-12-06T22:01:10.097Z,59.32
2022-12-06T22:03:37.608Z,59.87
2022-12-06T22:06:13.877Z,60.06
2022-12-06T22:08:42.785Z,60.01
2022-12-06T22:11:12.547Z,59.73
2022-12-06T22:13:39.482Z,60.18
2022-12-06T22:16:08.973Z,59.72
2022-12-06T22:18:44.764Z,59.32
2022-12-06T22:21:19.044Z,59.89
2022-12-06T22:23:47.084Z,60.06
2022-12-06T22:26:16.666Z,59.92
2022-12-06T22:28:43.884Z,59.53
2022-12-06T22:31:15.405Z,59.04
2022-12-06T22:33:42.918Z,58.94
2022-12-06T22:36:11.039Z,58.85
2022-12-06T22:38:38.000Z,59.39
2022-12-06T22:41:06.050Z,58.97
2022-12-06T22:43:33.540Z,58.95
2022-12-06T22:46:07.309Z,58.79
2022-12-06T22:48:34.431Z,59.07
2022-12-06T22:51:36.631Z,58.72
2022-12-06T22:54:07.206Z,59.22
2022-12-06T22:56:34.180Z,58.95
2022-12-06T22:59:01.748Z,59.75
2022-12-06T23:01:31.491Z,59.64
2022-12-06T23:04:01.291Z,59.05
2022-12-06T23:06:28.842Z,59.79
2022-12-06T23:08:56.510Z,60.15
2022-12-06T23:11:26.743Z,59.70
2022-12-06T23:13:55.774Z,60.14
2022-12-06T23:16:26.663Z,59.51
2022-12-06T23:18:54.047Z,60.51
2022-12-06T23:21:24.104Z,59.89
2022-12-06T23:23:53.144Z,60.28
2022-12-06T23:26:22.704Z,60.33
2022-12-06T23:28:50.435Z,60.80
2022-12-06T23:31:22.916Z,60.28
2022-12-06T23:33:54.207Z,59.83
2022-12-06T23:36:23.573Z,60.16
2022-12-06T23:38:51.709Z,60.31
2022-12-06T23:41:24.628Z,60.09
2022-12-06T23:43:53.115Z,60.13
2022-12-06T23:46:23.098Z,59.89
2022-12-06T23:48:51.379Z,60.34
2022-12-06T23:51:21.371Z,59.48
2022-12-06T23:53:53.470Z,59.41
2022-12-06T23:56:21.866Z,60.55
2022-12-06T23:58:50.082Z,59.53
